Αρχική σελίδα
METAR-TAF:

METAR-TAF

Αεροδρόμια :

Πόλη του Κουβέιτ, Κουβέιτ

γεωγραφικό πλάτος: 29-13N, γεωγραφικό μήκος: 047-59E, υψόμετρο: 55 μ

Παρών καιρός

Η αναφορά έγινε 1 ώρα και 7 λεπτά πριν, στις 12:00 UTC
Άνεμος 10 kt από Α/BA
Θερμοκρασία 26°C
Υγρασία 26%
Πίεση 1014 hPa
Ορατότητα 10 χλμ και άνω
Δεν υπάρχουν νέφη με βάση κάτω από τα 1500 μ. και δεν υπάρχουν νέφη σωρειτομελανίτες.

METAR: OKBK 221200Z 07010KT CAVOK 26/05 Q1014 NOSIG

Χρόνος: 16:07 (13:07 UTC)

Πρόγνωση Καιρού

Η αναφορά έγινε 2 ώρες και 22 λεπτά πριν, στις 10:45 UTC
Η πρόγνωση ισχύει από τις 22 στις 12 UTC έως τις 23 στις 18 UTC
Άνεμος 10 kt από BA
Ορατότητα: 7000 μ
Καθαρός ουρανός
Προσωρινά
από 22 στις 18 UTC έως τις 23 στις 06 UTC
Άνεμος 3 kt από μεταβλητές κατευθύνσεις

TAF: OKBK 221045Z 2212/2318 04010KT 7000 SKC TEMPO 2218/2306 VRB03KT

Μετεωρολογικές αναφορές και προγνώσεις για περισσότερα από 4000 αεροδρόμια (δελτία METAR και TAF).

Οι διαθέσιμοι σταθμοί απεικονίζονται στο χάρτη με κίτρινες και κόκκινες κουκκίδες.

Μετακινήστε το ποντίκι πάνω από τις κουκκίδες για να δείτε το όνομα του σταθμού.

Στη συνέχεια, κάντε κλικ για να δείτε τις μετεωρολογικές αναφορές και τις προγνώσεις καιρού.

Για να αλλάξετε το χάρτη: κάντε κλικ στα πράσινα κουμπιά με τον μαύρο σταυρό για να ζουμάρετε, στο πράσινο κουμπί με την παύλα για να αφαιρέσετε το ζουμ ή στα πράσινα βέλη για να αντιπαραβάλλετε χάρτες.


METAR-TAF: